Stena Atlantica — ZCPR7 — position and weather

sailwx.info

Track history (hours):
 
Tides and Currents Weather Stations Pressure Air Temp Water Temp Dewpoint Dewpoint Depression Visibility Wind Speed Wind Dir Waves Ship Positions

Stena Atlantica

Last reported at 2014-Aug-26 11:07 UTC. Time now 2014-Aug-27 19:12 UTC.
Position N 53°26' W 003°01'.

Length 245 m; draft 11.7 m.

Type: Tanker. MMSI: 319161000.

Date/timePositionNaut miles runAvg speedWind from/ knotsBaromVisibWave heightAir tempDewpointWater temp
2014-Aug-26 11:07N 53°26' W 003°01'7 7.6
2014-Aug-26 10:12N 53°32' W 003°08'710.5
2014-Aug-26 09:33N 53°32' W 003°20'2 2.2
2014-Aug-26 08:33N 53°32' W 003°23'3 3.2
2014-Aug-26 07:33N 53°31' W 003°28'7 5.7
2014-Aug-26 06:21N 53°31' W 003°40'5 6.3
2014-Aug-26 05:32N 53°31' W 003°49'6 6.3
2014-Aug-26 04:31N 53°31' W 003°59'  
2014-Aug-22 11:26N 37°06' W 009°28'1212.7
2014-Aug-22 10:29N 36°54' W 009°25'1212.1
2014-Aug-22 09:31N 36°44' W 009°17'1211.8
2014-Aug-22 08:31N 36°38' W 009°04'1512.7
2014-Aug-22 07:21N 36°34' W 008°47'1012.9
2014-Aug-22 06:34N 36°31' W 008°34'10312.8
2014-Aug-21 22:32N 36°02' W 006°32'6012.0
2014-Aug-21 17:31N 36°02' W 005°17'18012.0
2014-Aug-21 02:32N 36°12' W 001°35'2711.5
2014-Aug-21 00:09N 36°08' W 001°02'711.2
2014-Aug-20 23:33N 36°07' W 000°54'1211.4
2014-Aug-20 22:29N 36°06' W 000°39'1111.4
2014-Aug-20 21:33N 36°04' W 000°26'1010.5
2014-Aug-20 20:33N 35°58' W 000°15'9 8.7
2014-Aug-20 19:33N 35°49' W 000°14'1 0.7
2014-Aug-20 18:06N 35°49' W 000°15'0 0.0
2014-Aug-20 17:15N 35°49' W 000°15'13 0.4
2014-Aug-19 06:20N 36°01' W 000°06'0 0.3
2014-Aug-19 05:33N 36°01' W 000°06'3 0.2
2014-Aug-18 15:34N 36°01' W 000°10'4 1.9
2014-Aug-18 13:33N 36°01' W 000°15'1 1.1
2014-Aug-18 12:17N 36°02' W 000°13'2 1.0
2014-Aug-18 10:28N 36°03' W 000°11'1 0.9
2014-Aug-18 09:32N 36°03' W 000°10'1 1.0
2014-Aug-18 08:33N 36°03' W 000°09'1 0.9
2014-Aug-18 07:12N 36°03' W 000°07'1 1.0
2014-Aug-18 06:27N 36°03' W 000°07'1 1.1
2014-Aug-18 05:33N 36°03' W 000°06'1 0.4
2014-Aug-18 04:06N 36°03' W 000°06'611.7
2014-Aug-18 03:33N 36°03' W 000°14'2 0.7
2014-Aug-18 00:23N 36°02' W 000°12'  
Track history (hours):
 
Tides and Currents Weather Stations Pressure Air Temp Water Temp Dewpoint Dewpoint Depression Visibility Wind Speed Wind Dir Waves Ship Positions

Stena Atlantica

Last reported at 2014-Aug-26 11:07 UTC. Time now 2014-Aug-27 19:12 UTC.
Position N 53°26' W 003°01'.

Length 245 m; draft 11.7 m.

Type: Tanker. MMSI: 319161000.

Date/timePositionNaut miles runAvg speedWind from/ knotsBaromVisibWave heightAir tempDewpointWater temp
2014-Aug-26 11:07N 53°26' W 003°01'7 7.6
2014-Aug-26 10:12N 53°32' W 003°08'710.5
2014-Aug-26 09:33N 53°32' W 003°20'2 2.2
2014-Aug-26 08:33N 53°32' W 003°23'3 3.2
2014-Aug-26 07:33N 53°31' W 003°28'7 5.7
2014-Aug-26 06:21N 53°31' W 003°40'5 6.3
2014-Aug-26 05:32N 53°31' W 003°49'6 6.3
2014-Aug-26 04:31N 53°31' W 003°59'  
2014-Aug-22 11:26N 37°06' W 009°28'1212.7
2014-Aug-22 10:29N 36°54' W 009°25'1212.1
2014-Aug-22 09:31N 36°44' W 009°17'1211.8
2014-Aug-22 08:31N 36°38' W 009°04'1512.7
2014-Aug-22 07:21N 36°34' W 008°47'1012.9
2014-Aug-22 06:34N 36°31' W 008°34'10312.8
2014-Aug-21 22:32N 36°02' W 006°32'6012.0
2014-Aug-21 17:31N 36°02' W 005°17'18012.0
2014-Aug-21 02:32N 36°12' W 001°35'2711.5
2014-Aug-21 00:09N 36°08' W 001°02'711.2
2014-Aug-20 23:33N 36°07' W 000°54'1211.4
2014-Aug-20 22:29N 36°06' W 000°39'1111.4
2014-Aug-20 21:33N 36°04' W 000°26'1010.5
2014-Aug-20 20:33N 35°58' W 000°15'9 8.7
2014-Aug-20 19:33N 35°49' W 000°14'1 0.7
2014-Aug-20 18:06N 35°49' W 000°15'0 0.0
2014-Aug-20 17:15N 35°49' W 000°15'13 0.4
2014-Aug-19 06:20N 36°01' W 000°06'0 0.3
2014-Aug-19 05:33N 36°01' W 000°06'3 0.2
2014-Aug-18 15:34N 36°01' W 000°10'4 1.9
2014-Aug-18 13:33N 36°01' W 000°15'1 1.1
2014-Aug-18 12:17N 36°02' W 000°13'2 1.0
2014-Aug-18 10:28N 36°03' W 000°11'1 0.9
2014-Aug-18 09:32N 36°03' W 000°10'1 1.0
2014-Aug-18 08:33N 36°03' W 000°09'1 0.9
2014-Aug-18 07:12N 36°03' W 000°07'1 1.0
2014-Aug-18 06:27N 36°03' W 000°07'1 1.1
2014-Aug-18 05:33N 36°03' W 000°06'1 0.4
2014-Aug-18 04:06N 36°03' W 000°06'611.7
2014-Aug-18 03:33N 36°03' W 000°14'2 0.7
2014-Aug-18 00:23N 36°02' W 000°12'  

Dump ship's entire track history